Four Emerald — 9HA4675 — position and weather

sailwx.info

Track history (hours):
 
Tides and Currents Weather Stations Pressure Air Temp Water Temp Dewpoint Dewpoint Depression Visibility Wind Speed Wind Dir Waves Ship Positions

Four Emerald

Last reported at 2018-May-21 17:56 UTC. Time now 2018-May-23 03:35 UTC.
Position N 38°35' E 121°44'.

Length 180 m; draft 4.5 m.

Type: Cargo ship. MMSI: 248502000.

Date/timePositionNaut miles runAvg speedWind from/ knotsBaromVisibWave heightAir tempDewpointWater temp
2018-May-21 17:56N 38°35' E 121°44'613.0
2018-May-21 17:29N 38°40' E 121°49'912.9
2018-May-21 16:47N 38°48' E 121°55'412.5
2018-May-21 16:26N 38°51' E 121°58'1 0.1
2018-May-21 06:39N 38°52' E 121°58'1 8.4
2018-May-21 06:30N 38°52' E 121°57'4 8.7
2018-May-21 06:00N 38°50' E 121°51'4 8.1
2018-May-21 05:30N 38°49' E 121°46'5 8.9
2018-May-21 05:00N 38°54' E 121°45'6 6.0
2018-May-21 03:57N 38°58' E 121°40'2 5.1
2018-May-21 03:28N 39°01' E 121°41'0 0.0
2018-May-19 19:02N 39°01' E 121°41'0 0.0
2018-May-18 08:41N 39°01' E 121°41'0 0.0
2018-May-18 08:11N 39°01' E 121°41'0 0.0
2018-May-18 06:44N 39°01' E 121°41'0 0.0
2018-May-18 01:41N 39°01' E 121°41'0 0.0
2018-May-18 01:14N 39°01' E 121°41'0 0.0
2018-May-18 00:59N 39°01' E 121°41'0 0.0
2018-May-18 00:17N 39°01' E 121°41'0 0.0
2018-May-17 23:56N 39°01' E 121°41'0 0.0
2018-May-17 23:26N 39°01' E 121°41'0 0.0
2018-May-17 22:59N 39°01' E 121°41'0 0.0
2018-May-17 22:11N 39°01' E 121°41'0 0.0
2018-May-17 15:29N 39°01' E 121°41'  
2018-May-15 02:59N 39°01' E 121°41'0 0.0
2018-May-15 02:29N 39°01' E 121°41'  
Track history (hours):
 
Tides and Currents Weather Stations Pressure Air Temp Water Temp Dewpoint Dewpoint Depression Visibility Wind Speed Wind Dir Waves Ship Positions

Four Emerald

Last reported at 2018-May-21 17:56 UTC. Time now 2018-May-23 03:35 UTC.
Position N 38°35' E 121°44'.

Length 180 m; draft 4.5 m.

Type: Cargo ship. MMSI: 248502000.

Date/timePositionNaut miles runAvg speedWind from/ knotsBaromVisibWave heightAir tempDewpointWater temp
2018-May-21 17:56N 38°35' E 121°44'613.0
2018-May-21 17:29N 38°40' E 121°49'912.9
2018-May-21 16:47N 38°48' E 121°55'412.5
2018-May-21 16:26N 38°51' E 121°58'1 0.1
2018-May-21 06:39N 38°52' E 121°58'1 8.4
2018-May-21 06:30N 38°52' E 121°57'4 8.7
2018-May-21 06:00N 38°50' E 121°51'4 8.1
2018-May-21 05:30N 38°49' E 121°46'5 8.9
2018-May-21 05:00N 38°54' E 121°45'6 6.0
2018-May-21 03:57N 38°58' E 121°40'2 5.1
2018-May-21 03:28N 39°01' E 121°41'0 0.0
2018-May-19 19:02N 39°01' E 121°41'0 0.0
2018-May-18 08:41N 39°01' E 121°41'0 0.0
2018-May-18 08:11N 39°01' E 121°41'0 0.0
2018-May-18 06:44N 39°01' E 121°41'0 0.0
2018-May-18 01:41N 39°01' E 121°41'0 0.0
2018-May-18 01:14N 39°01' E 121°41'0 0.0
2018-May-18 00:59N 39°01' E 121°41'0 0.0
2018-May-18 00:17N 39°01' E 121°41'0 0.0
2018-May-17 23:56N 39°01' E 121°41'0 0.0
2018-May-17 23:26N 39°01' E 121°41'0 0.0
2018-May-17 22:59N 39°01' E 121°41'0 0.0
2018-May-17 22:11N 39°01' E 121°41'0 0.0
2018-May-17 15:29N 39°01' E 121°41'  
2018-May-15 02:59N 39°01' E 121°41'0 0.0
2018-May-15 02:29N 39°01' E 121°41'  

Dump ship's entire track history